sensor_id;sensor_type;location;lat;lon;timestamp;pressure;altitude;pressure_sealevel;temperature;humidity
73692;BME280;61996;49.910;35.562;2023-08-24T00:00:51;99351.75;;;20.77;52.87
73692;BME280;61996;49.910;35.562;2023-08-24T00:03:54;99342.75;;;20.78;53.05
73692;BME280;61996;49.910;35.562;2023-08-24T00:06:57;99350.63;;;20.79;52.69
73692;BME280;61996;49.910;35.562;2023-08-24T00:10:01;99346.94;;;20.80;52.68
73692;BME280;61996;49.910;35.562;2023-08-24T00:13:05;99350.75;;;20.78;52.95
73692;BME280;61996;49.910;35.562;2023-08-24T00:16:09;99352.59;;;20.77;52.55
73692;BME280;61996;49.910;35.562;2023-08-24T00:19:12;99355.69;;;20.91;52.59
73692;BME280;61996;49.910;35.562;2023-08-24T00:22:15;99357.31;;;20.84;52.59
73692;BME280;61996;49.910;35.562;2023-08-24T00:25:19;99349.63;;;20.80;52.68
73692;BME280;61996;49.910;35.562;2023-08-24T00:28:22;99357.25;;;20.75;52.90
73692;BME280;61996;49.910;35.562;2023-08-24T00:31:24;99352.97;;;20.83;52.44
73692;BME280;61996;49.910;35.562;2023-08-24T00:34:27;99356.41;;;21.01;52.74
73692;BME280;61996;49.910;35.562;2023-08-24T00:37:30;99356.78;;;21.48;51.92
73692;BME280;61996;49.910;35.562;2023-08-24T00:40:35;99365.06;;;21.63;51.82
73692;BME280;61996;49.910;35.562;2023-08-24T00:43:37;99359.00;;;21.69;51.89
73692;BME280;61996;49.910;35.562;2023-08-24T00:46:40;99365.56;;;21.75;51.82
73692;BME280;61996;49.910;35.562;2023-08-24T00:49:43;99357.69;;;21.73;51.77
73692;BME280;61996;49.910;35.562;2023-08-24T00:52:46;99362.72;;;21.76;51.50
73692;BME280;61996;49.910;35.562;2023-08-24T00:55:51;99366.91;;;21.79;51.54
73692;BME280;61996;49.910;35.562;2023-08-24T00:58:54;99359.72;;;21.87;51.40
73692;BME280;61996;49.910;35.562;2023-08-24T01:01:57;99351.88;;;21.86;51.57
73692;BME280;61996;49.910;35.562;2023-08-24T01:05:01;99355.88;;;21.90;51.48
73692;BME280;61996;49.910;35.562;2023-08-24T01:08:05;99353.53;;;21.87;51.37
73692;BME280;61996;49.910;35.562;2023-08-24T01:11:12;99356.88;;;21.89;51.38
73692;BME280;61996;49.910;35.562;2023-08-24T01:14:21;99357.72;;;21.89;51.39
73692;BME280;61996;49.910;35.562;2023-08-24T01:17:26;99345.69;;;21.94;51.59
73692;BME280;61996;49.910;35.562;2023-08-24T01:20:31;99349.19;;;21.94;51.44
73692;BME280;61996;49.910;35.562;2023-08-24T01:23:36;99339.34;;;21.95;51.32
73692;BME280;61996;49.910;35.562;2023-08-24T01:26:45;99343.69;;;21.96;51.38
73692;BME280;61996;49.910;35.562;2023-08-24T01:29:50;99350.38;;;22.00;51.27
73692;BME280;61996;49.910;35.562;2023-08-24T01:32:58;99356.75;;;21.99;51.28
73692;BME280;61996;49.910;35.562;2023-08-24T01:36:01;99344.03;;;22.01;51.06
73692;BME280;61996;49.910;35.562;2023-08-24T01:39:05;99348.72;;;21.99;51.06
73692;BME280;61996;49.910;35.562;2023-08-24T01:42:13;99353.91;;;22.00;51.06
73692;BME280;61996;49.910;35.562;2023-08-24T01:45:16;99344.84;;;22.01;50.97
73692;BME280;61996;49.910;35.562;2023-08-24T01:48:20;99354.72;;;22.01;51.07
73692;BME280;61996;49.910;35.562;2023-08-24T01:51:23;99352.91;;;22.01;51.15
73692;BME280;61996;49.910;35.562;2023-08-24T01:54:26;99347.88;;;21.98;50.97
73692;BME280;61996;49.910;35.562;2023-08-24T01:57:31;99358.41;;;22.00;51.15
73692;BME280;61996;49.910;35.562;2023-08-24T02:00:34;99363.78;;;22.00;51.08
73692;BME280;61996;49.910;35.562;2023-08-24T02:03:37;99363.44;;;22.03;51.10
73692;BME280;61996;49.910;35.562;2023-08-24T02:06:41;99368.28;;;21.99;51.02
73692;BME280;61996;49.910;35.562;2023-08-24T02:09:44;99366.44;;;22.00;51.33
73692;BME280;61996;49.910;35.562;2023-08-24T02:12:48;99368.78;;;22.03;51.12
73692;BME280;61996;49.910;35.562;2023-08-24T02:16:00;99369.63;;;22.03;51.28
73692;BME280;61996;49.910;35.562;2023-08-24T02:19:03;99383.19;;;22.02;51.31
73692;BME280;61996;49.910;35.562;2023-08-24T02:22:06;99383.19;;;22.02;51.06
73692;BME280;61996;49.910;35.562;2023-08-24T02:25:09;99391.03;;;22.03;51.15
73692;BME280;61996;49.910;35.562;2023-08-24T02:28:14;99386.38;;;22.05;51.34
73692;BME280;61996;49.910;35.562;2023-08-24T02:31:16;99388.53;;;22.02;51.26
73692;BME280;61996;49.910;35.562;2023-08-24T02:34:19;99395.94;;;22.16;51.04
73692;BME280;61996;49.910;35.562;2023-08-24T02:37:22;99388.88;;;22.07;51.24
73692;BME280;61996;49.910;35.562;2023-08-24T02:40:25;99402.28;;;22.07;51.35
73692;BME280;61996;49.910;35.562;2023-08-24T02:43:30;99390.56;;;22.08;51.01
73692;BME280;61996;49.910;35.562;2023-08-24T02:46:32;99404.28;;;22.05;50.96
73692;BME280;61996;49.910;35.562;2023-08-24T02:49:35;99403.28;;;22.06;51.24
73692;BME280;61996;49.910;35.562;2023-08-24T02:52:38;99410.31;;;22.07;51.01
73692;BME280;61996;49.910;35.562;2023-08-24T02:55:41;99405.44;;;22.02;51.12
73692;BME280;61996;49.910;35.562;2023-08-24T02:58:45;99407.50;;;22.08;50.82
73692;BME280;61996;49.910;35.562;2023-08-24T03:01:48;99405.78;;;22.07;50.96
73692;BME280;61996;49.910;35.562;2023-08-24T03:04:51;99407.94;;;22.04;50.98
73692;BME280;61996;49.910;35.562;2023-08-24T03:07:54;99415.84;;;22.05;51.22
73692;BME280;61996;49.910;35.562;2023-08-24T03:10:57;99411.31;;;22.06;50.97
73692;BME280;61996;49.910;35.562;2023-08-24T03:14:01;99405.25;;;22.04;51.00
73692;BME280;61996;49.910;35.562;2023-08-24T03:17:04;99408.13;;;22.02;51.09
73692;BME280;61996;49.910;35.562;2023-08-24T03:20:09;99421.84;;;21.99;51.12
73692;BME280;61996;49.910;35.562;2023-08-24T03:23:12;99419.34;;;21.98;51.40
73692;BME280;61996;49.910;35.562;2023-08-24T03:26:15;99412.47;;;21.95;51.27
73692;BME280;61996;49.910;35.562;2023-08-24T03:29:19;99419.00;;;21.93;51.32
73692;BME280;61996;49.910;35.562;2023-08-24T03:32:22;99419.63;;;21.86;51.51
73692;BME280;61996;49.910;35.562;2023-08-24T03:35:25;99424.16;;;21.86;51.55
73692;BME280;61996;49.910;35.562;2023-08-24T03:38:28;99422.63;;;21.83;51.36
73692;BME280;61996;49.910;35.562;2023-08-24T03:41:31;99423.13;;;21.79;51.33
73692;BME280;61996;49.910;35.562;2023-08-24T03:44:36;99422.97;;;21.80;51.26
73692;BME280;61996;49.910;35.562;2023-08-24T03:47:39;99428.84;;;21.84;51.65
73692;BME280;61996;49.910;35.562;2023-08-24T03:50:42;99426.16;;;21.84;51.23
73692;BME280;61996;49.910;35.562;2023-08-24T03:53:45;99425.31;;;21.83;51.48
73692;BME280;61996;49.910;35.562;2023-08-24T03:56:48;99434.69;;;21.87;51.37
73692;BME280;61996;49.910;35.562;2023-08-24T03:59:52;99430.69;;;21.92;51.61
73692;BME280;61996;49.910;35.562;2023-08-24T04:02:55;99437.72;;;21.93;51.51
73692;BME280;61996;49.910;35.562;2023-08-24T04:05:58;99444.75;;;21.94;51.42
73692;BME280;61996;49.910;35.562;2023-08-24T04:09:01;99445.59;;;21.94;51.42
73692;BME280;61996;49.910;35.562;2023-08-24T04:12:04;99446.44;;;21.95;51.28
73692;BME280;61996;49.910;35.562;2023-08-24T04:15:09;99444.59;;;21.95;51.49
73692;BME280;61996;49.910;35.562;2023-08-24T04:18:12;99442.75;;;21.96;51.40
73692;BME280;61996;49.910;35.562;2023-08-24T04:21:15;99451.47;;;21.98;51.40
73692;BME280;61996;49.910;35.562;2023-08-24T04:24:18;99446.94;;;21.98;51.48
73692;BME280;61996;49.910;35.562;2023-08-24T04:27:21;99448.78;;;21.98;51.63
73692;BME280;61996;49.910;35.562;2023-08-24T04:30:26;99451.47;;;21.98;51.55
73692;BME280;61996;49.910;35.562;2023-08-24T04:33:29;99440.75;;;21.98;51.33
73692;BME280;61996;49.910;35.562;2023-08-24T04:39:35;99447.44;;;22.02;51.36
73692;BME280;61996;49.910;35.562;2023-08-24T04:42:38;99446.44;;;22.03;51.40
73692;BME280;61996;49.910;35.562;2023-08-24T04:45:45;99439.41;;;22.02;51.46
73692;BME280;61996;49.910;35.562;2023-08-24T04:48:48;99438.41;;;22.03;51.35
73692;BME280;61996;49.910;35.562;2023-08-24T04:51:51;99447.13;;;22.05;51.48
73692;BME280;61996;49.910;35.562;2023-08-24T04:54:53;99448.44;;;22.01;51.38
73692;BME280;61996;49.910;35.562;2023-08-24T04:57:56;99447.97;;;22.05;51.29
73692;BME280;61996;49.910;35.562;2023-08-24T05:01:01;99438.41;;;22.03;51.46
73692;BME280;61996;49.910;35.562;2023-08-24T05:04:04;99444.28;;;22.06;51.58
73692;BME280;61996;49.910;35.562;2023-08-24T05:07:06;99440.47;;;22.09;51.43
73692;BME280;61996;49.910;35.562;2023-08-24T05:10:09;99441.13;;;22.11;51.39
73692;BME280;61996;49.910;35.562;2023-08-24T05:13:12;99445.00;;;22.25;51.56
73692;BME280;61996;49.910;35.562;2023-08-24T05:16:17;99439.50;;;22.34;51.29
73692;BME280;61996;49.910;35.562;2023-08-24T05:19:20;99436.13;;;22.24;51.38
73692;BME280;61996;49.910;35.562;2023-08-24T05:22:23;99432.78;;;22.22;51.40
73692;BME280;61996;49.910;35.562;2023-08-24T05:25:26;99430.09;;;22.22;51.45
73692;BME280;61996;49.910;35.562;2023-08-24T05:28:29;99425.59;;;22.23;51.28
73692;BME280;61996;49.910;35.562;2023-08-24T05:31:34;99436.13;;;22.24;51.31
73692;BME280;61996;49.910;35.562;2023-08-24T05:34:36;99430.78;;;22.24;51.17
73692;BME280;61996;49.910;35.562;2023-08-24T05:37:39;99431.47;;;22.26;51.25
73692;BME280;61996;49.910;35.562;2023-08-24T05:40:42;99433.81;;;22.29;51.15
73692;BME280;61996;49.910;35.562;2023-08-24T05:43:45;99433.63;;;22.31;51.41
73692;BME280;61996;49.910;35.562;2023-08-24T05:46:50;99431.78;;;22.31;51.32
73692;BME280;61996;49.910;35.562;2023-08-24T05:49:52;99423.75;;;22.31;51.22
73692;BME280;61996;49.910;35.562;2023-08-24T05:52:55;99434.97;;;22.35;51.41
73692;BME280;61996;49.910;35.562;2023-08-24T05:55:58;99436.81;;;22.34;51.16
73692;BME280;61996;49.910;35.562;2023-08-24T05:59:01;99436.81;;;22.34;51.18
73692;BME280;61996;49.910;35.562;2023-08-24T06:02:08;99430.13;;;22.38;51.36
73692;BME280;61996;49.910;35.562;2023-08-24T06:05:11;99432.78;;;22.38;51.56
73692;BME280;61996;49.910;35.562;2023-08-24T06:08:13;99434.31;;;22.41;51.46
73692;BME280;61996;49.910;35.562;2023-08-24T06:11:16;99436.16;;;22.40;50.93
73692;BME280;61996;49.910;35.562;2023-08-24T06:14:20;99443.38;;;22.40;51.30
73692;BME280;61996;49.910;35.562;2023-08-24T06:17:24;99439.00;;;22.39;51.34
73692;BME280;61996;49.910;35.562;2023-08-24T06:20:27;99440.50;;;22.41;50.85
73692;BME280;61996;49.910;35.562;2023-08-24T06:23:30;99446.22;;;22.47;51.08
73692;BME280;61996;49.910;35.562;2023-08-24T06:26:33;99442.00;;;22.44;50.88
73692;BME280;61996;49.910;35.562;2023-08-24T06:29:35;99439.16;;;22.46;50.78
73692;BME280;61996;49.910;35.562;2023-08-24T06:32:40;99441.84;;;22.46;50.92
73692;BME280;61996;49.910;35.562;2023-08-24T06:35:43;99436.16;;;22.49;51.04
73692;BME280;61996;49.910;35.562;2023-08-24T06:38:45;99434.50;;;22.48;51.02
73692;BME280;61996;49.910;35.562;2023-08-24T06:41:48;99438.50;;;22.52;50.79
73692;BME280;61996;49.910;35.562;2023-08-24T06:44:52;99447.22;;;22.54;50.41
73692;BME280;61996;49.910;35.562;2023-08-24T06:47:57;99441.53;;;22.57;50.82
73692;BME280;61996;49.910;35.562;2023-08-24T06:51:00;99435.97;;;22.58;50.66
73692;BME280;61996;49.910;35.562;2023-08-24T06:54:02;99443.19;;;22.58;50.52
73692;BME280;61996;49.910;35.562;2023-08-24T06:57:05;99436.81;;;22.59;50.48
73692;BME280;61996;49.910;35.562;2023-08-24T07:00:08;99449.38;;;22.58;50.20
73692;BME280;61996;49.910;35.562;2023-08-24T07:03:15;99441.34;;;22.58;50.50
73692;BME280;61996;49.910;35.562;2023-08-24T07:06:18;99447.22;;;22.62;50.61
73692;BME280;61996;49.910;35.562;2023-08-24T07:09:21;99444.19;;;22.65;50.31
73692;BME280;61996;49.910;35.562;2023-08-24T07:12:24;99442.19;;;22.67;50.32
73692;BME280;61996;49.910;35.562;2023-08-24T07:15:27;99446.69;;;22.66;50.12
73692;BME280;61996;49.910;35.562;2023-08-24T07:18:31;99444.72;;;22.68;50.18
73692;BME280;61996;49.910;35.562;2023-08-24T07:21:34;99453.25;;;22.72;49.97
73692;BME280;61996;49.910;35.562;2023-08-24T07:24:37;99449.38;;;22.66;49.63
73692;BME280;61996;49.910;35.562;2023-08-24T07:27:44;99453.91;;;22.66;49.79
73692;BME280;61996;49.910;35.562;2023-08-24T07:30:47;99447.56;;;22.67;49.82
73692;BME280;61996;49.910;35.562;2023-08-24T07:33:51;99448.06;;;22.70;49.68
73692;BME280;61996;49.910;35.562;2023-08-24T07:36:54;99453.25;;;22.72;49.54
73692;BME280;61996;49.910;35.562;2023-08-24T07:39:57;99443.22;;;22.74;49.70
73692;BME280;61996;49.910;35.562;2023-08-24T07:43:00;99440.00;;;22.79;49.63
73692;BME280;61996;49.910;35.562;2023-08-24T07:46:03;99443.88;;;22.76;49.37
73692;BME280;61996;49.910;35.562;2023-08-24T07:49:10;99447.03;;;22.80;49.64
73692;BME280;61996;49.910;35.562;2023-08-24T07:52:13;99445.38;;;22.79;49.43
73692;BME280;61996;49.910;35.562;2023-08-24T07:55:16;99440.84;;;22.79;49.46
73692;BME280;61996;49.910;35.562;2023-08-24T07:58:19;99439.50;;;22.83;49.36
73692;BME280;61996;49.910;35.562;2023-08-24T08:01:22;99443.03;;;22.84;49.53
73692;BME280;61996;49.910;35.562;2023-08-24T08:04:27;99441.03;;;22.86;49.53
73692;BME280;61996;49.910;35.562;2023-08-24T08:07:29;99437.66;;;22.84;49.23
73692;BME280;61996;49.910;35.562;2023-08-24T08:10:32;99434.78;;;22.85;49.75
73692;BME280;61996;49.910;35.562;2023-08-24T08:13:35;99442.84;;;22.85;49.35
73692;BME280;61996;49.910;35.562;2023-08-24T08:16:38;99438.16;;;22.87;49.20
73692;BME280;61996;49.910;35.562;2023-08-24T08:19:42;99433.69;;;22.88;49.17
73692;BME280;61996;49.910;35.562;2023-08-24T08:22:45;99435.66;;;22.86;49.37
73692;BME280;61996;49.910;35.562;2023-08-24T08:25:49;99433.13;;;22.84;49.82
73692;BME280;61996;49.910;35.562;2023-08-24T08:28:52;99427.63;;;22.86;49.79
73692;BME280;61996;49.910;35.562;2023-08-24T08:31:54;99431.66;;;22.90;49.39
73692;BME280;61996;49.910;35.562;2023-08-24T08:34:59;99427.31;;;22.89;49.37
73692;BME280;61996;49.910;35.562;2023-08-24T08:38:02;99427.13;;;22.90;49.63
73692;BME280;61996;49.910;35.562;2023-08-24T08:41:05;99423.94;;;22.95;48.97
73692;BME280;61996;49.910;35.562;2023-08-24T08:44:08;99414.19;;;22.94;49.15
73692;BME280;61996;49.910;35.562;2023-08-24T08:47:12;99417.72;;;22.94;49.30
73692;BME280;61996;49.910;35.562;2023-08-24T08:50:17;99423.06;;;22.94;49.43
73692;BME280;61996;49.910;35.562;2023-08-24T08:53:21;99420.56;;;22.93;49.04
73692;BME280;61996;49.910;35.562;2023-08-24T08:56:24;99423.59;;;22.98;49.57
73692;BME280;61996;49.910;35.562;2023-08-24T08:59:27;99412.03;;;22.97;48.84
73692;BME280;61996;49.910;35.562;2023-08-24T09:02:31;99398.78;;;22.96;49.22
73692;BME280;61996;49.910;35.562;2023-08-24T09:05:37;99408.50;;;22.97;49.31
73692;BME280;61996;49.910;35.562;2023-08-24T09:08:40;99417.38;;;22.97;49.17
73692;BME280;61996;49.910;35.562;2023-08-24T09:11:43;99417.22;;;22.99;48.97
73692;BME280;61996;49.910;35.562;2023-08-24T09:14:49;99405.66;;;22.98;48.68
73692;BME280;61996;49.910;35.562;2023-08-24T09:17:52;99413.34;;;23.02;49.42
73692;BME280;61996;49.910;35.562;2023-08-24T09:20:57;99405.94;;;23.12;49.37
73692;BME280;61996;49.910;35.562;2023-08-24T09:24:00;99405.81;;;23.05;49.74
73692;BME280;61996;49.910;35.562;2023-08-24T09:27:05;99409.31;;;23.06;49.74
73692;BME280;61996;49.910;35.562;2023-08-24T09:30:16;99409.00;;;23.09;49.26
73692;BME280;61996;49.910;35.562;2023-08-24T09:33:19;99415.66;;;23.13;49.17
73692;BME280;61996;49.910;35.562;2023-08-24T09:36:24;99419.72;;;23.09;50.12
73692;BME280;61996;49.910;35.562;2023-08-24T09:39:27;99421.69;;;23.23;48.77
73692;BME280;61996;49.910;35.562;2023-08-24T09:42:34;99416.66;;;23.20;49.40
73692;BME280;61996;49.910;35.562;2023-08-24T09:45:42;99405.44;;;23.16;49.91
73692;BME280;61996;49.910;35.562;2023-08-24T09:48:53;99409.97;;;23.16;48.69
73692;BME280;61996;49.910;35.562;2023-08-24T09:51:57;99410.97;;;23.15;49.34
73692;BME280;61996;49.910;35.562;2023-08-24T09:55:02;99407.63;;;23.13;49.41
73692;BME280;61996;49.910;35.562;2023-08-24T09:58:06;99407.44;;;23.14;49.48
73692;BME280;61996;49.910;35.562;2023-08-24T10:01:11;99405.59;;;23.15;49.14
73692;BME280;61996;49.910;35.562;2023-08-24T10:04:14;99392.88;;;23.17;49.25
73692;BME280;61996;49.910;35.562;2023-08-24T10:07:19;99404.94;;;23.13;49.90
73692;BME280;61996;49.910;35.562;2023-08-24T10:10:23;99396.25;;;23.11;49.91
73692;BME280;61996;49.910;35.562;2023-08-24T10:13:31;99401.59;;;23.11;50.18
73692;BME280;61996;49.910;35.562;2023-08-24T10:16:36;99403.09;;;23.13;48.81
73692;BME280;61996;49.910;35.562;2023-08-24T10:19:40;99399.56;;;23.13;49.04
73692;BME280;61996;49.910;35.562;2023-08-24T10:22:45;99399.56;;;23.13;48.91
73692;BME280;61996;49.910;35.562;2023-08-24T10:25:49;99400.41;;;23.13;49.03
73692;BME280;61996;49.910;35.562;2023-08-24T10:28:54;99400.41;;;23.13;49.11
73692;BME280;61996;49.910;35.562;2023-08-24T10:31:57;99389.69;;;23.13;49.09
73692;BME280;61996;49.910;35.562;2023-08-24T10:35:01;99385.34;;;23.12;49.94
73692;BME280;61996;49.910;35.562;2023-08-24T10:38:05;99385.16;;;23.14;49.04
73692;BME280;61996;49.910;35.562;2023-08-24T10:41:08;99377.78;;;23.16;49.08
73692;BME280;61996;49.910;35.562;2023-08-24T10:44:19;99378.63;;;23.16;49.60
73692;BME280;61996;49.910;35.562;2023-08-24T10:47:22;99376.94;;;23.15;49.69
73692;BME280;61996;49.910;35.562;2023-08-24T10:50:28;99373.41;;;23.15;50.14
73692;BME280;61996;49.910;35.562;2023-08-24T10:53:38;99370.06;;;23.13;50.07
73692;BME280;61996;49.910;35.562;2023-08-24T10:56:41;99372.44;;;23.16;50.07
73692;BME280;61996;49.910;35.562;2023-08-24T10:59:57;99372.06;;;23.19;49.61
73692;BME280;61996;49.910;35.562;2023-08-24T11:03:00;99372.25;;;23.17;50.14
73692;BME280;61996;49.910;35.562;2023-08-24T11:06:16;99373.91;;;23.18;50.37
73692;BME280;61996;49.910;35.562;2023-08-24T11:09:21;99369.56;;;23.17;50.21
73692;BME280;61996;49.910;35.562;2023-08-24T11:12:24;99358.84;;;23.17;50.16
73692;BME280;61996;49.910;35.562;2023-08-24T11:15:30;99356.63;;;23.21;50.07
73692;BME280;61996;49.910;35.562;2023-08-24T11:18:34;99365.19;;;23.24;50.21
73692;BME280;61996;49.910;35.562;2023-08-24T11:21:42;99355.28;;;23.25;50.07
73692;BME280;61996;49.910;35.562;2023-08-24T11:24:47;99355.94;;;23.27;49.93
73692;BME280;61996;49.910;35.562;2023-08-24T11:27:50;99342.19;;;23.30;49.72
73692;BME280;61996;49.910;35.562;2023-08-24T11:30:53;99345.69;;;23.31;49.58
73692;BME280;61996;49.910;35.562;2023-08-24T11:33:56;99338.31;;;23.33;49.62
73692;BME280;61996;49.910;35.562;2023-08-24T11:36:59;99341.47;;;23.36;49.48
73692;BME280;61996;49.910;35.562;2023-08-24T11:40:04;99333.59;;;23.35;49.57
73692;BME280;61996;49.910;35.562;2023-08-24T11:43:11;99337.94;;;23.36;49.49
73692;BME280;61996;49.910;35.562;2023-08-24T11:46:15;99337.94;;;23.36;49.53
73692;BME280;61996;49.910;35.562;2023-08-24T11:49:18;99331.09;;;23.33;49.62
73692;BME280;61996;49.910;35.562;2023-08-24T11:52:21;99332.56;;;23.36;49.51
73692;BME280;61996;49.910;35.562;2023-08-24T11:55:25;99328.22;;;23.35;48.82
73692;BME280;61996;49.910;35.562;2023-08-24T11:58:28;99329.06;;;23.35;49.49
73692;BME280;61996;49.910;35.562;2023-08-24T12:01:31;99326.22;;;23.37;49.58
73692;BME280;61996;49.910;35.562;2023-08-24T12:04:38;99325.34;;;23.36;49.80
73692;BME280;61996;49.910;35.562;2023-08-24T12:07:41;99319.66;;;23.39;49.44
73692;BME280;61996;49.910;35.562;2023-08-24T12:10:48;99313.94;;;23.42;49.20
73692;BME280;61996;49.910;35.562;2023-08-24T12:13:51;99314.59;;;23.44;48.98
73692;BME280;61996;49.910;35.562;2023-08-24T12:16:55;99319.97;;;23.44;49.08
73692;BME280;61996;49.910;35.562;2023-08-24T12:19:58;99318.13;;;23.45;49.43
73692;BME280;61996;49.910;35.562;2023-08-24T12:23:02;99314.75;;;23.43;49.33
73692;BME280;61996;49.910;35.562;2023-08-24T12:26:06;99314.09;;;23.41;49.33
73692;BME280;61996;49.910;35.562;2023-08-24T12:29:09;99326.69;;;23.40;49.57
73692;BME280;61996;49.910;35.562;2023-08-24T12:32:12;99326.69;;;23.40;49.32
73692;BME280;61996;49.910;35.562;2023-08-24T12:35:16;99312.25;;;23.41;49.36
73692;BME280;61996;49.910;35.562;2023-08-24T12:38:20;99311.75;;;23.46;49.12
73692;BME280;61996;49.910;35.562;2023-08-24T12:41:24;99310.91;;;23.45;49.41
73692;BME280;61996;49.910;35.562;2023-08-24T12:44:27;99313.03;;;23.50;49.29
73692;BME280;61996;49.910;35.562;2023-08-24T12:47:30;99321.59;;;23.53;49.15
73692;BME280;61996;49.910;35.562;2023-08-24T12:50:34;99322.59;;;23.52;49.25
73692;BME280;61996;49.910;35.562;2023-08-24T12:53:37;99313.72;;;23.52;49.39
73692;BME280;61996;49.910;35.562;2023-08-24T12:56:41;99311.88;;;23.52;49.19
73692;BME280;61996;49.910;35.562;2023-08-24T12:59:44;99319.09;;;23.52;49.60
73692;BME280;61996;49.910;35.562;2023-08-24T13:02:47;99306.50;;;23.52;49.08
73692;BME280;61996;49.910;35.562;2023-08-24T13:05:50;99309.00;;;23.54;49.15
73692;BME280;61996;49.910;35.562;2023-08-24T13:08:53;99308.81;;;23.56;49.34
73692;BME280;61996;49.910;35.562;2023-08-24T13:11:57;99312.53;;;23.55;49.24
73692;BME280;61996;49.910;35.562;2023-08-24T13:15:01;99303.00;;;23.52;49.27
73692;BME280;61996;49.910;35.562;2023-08-24T13:18:04;99302.63;;;23.55;49.02
73692;BME280;61996;49.910;35.562;2023-08-24T13:21:07;99298.25;;;23.54;49.37
73692;BME280;61996;49.910;35.562;2023-08-24T13:24:10;99288.19;;;23.56;49.62
73692;BME280;61996;49.910;35.562;2023-08-24T13:27:14;99279.09;;;23.57;49.14
73692;BME280;61996;49.910;35.562;2023-08-24T13:30:17;99282.81;;;23.56;48.98
73692;BME280;61996;49.910;35.562;2023-08-24T13:33:20;99276.28;;;23.59;49.17
73692;BME280;61996;49.910;35.562;2023-08-24T13:36:23;99281.63;;;23.59;49.15
73692;BME280;61996;49.910;35.562;2023-08-24T13:39:26;99275.94;;;23.62;49.25
73692;BME280;61996;49.910;35.562;2023-08-24T13:42:31;99277.59;;;23.63;49.39
73692;BME280;61996;49.910;35.562;2023-08-24T13:45:34;99275.09;;;23.61;49.41
73692;BME280;61996;49.910;35.562;2023-08-24T13:48:37;99280.09;;;23.64;49.12
73692;BME280;61996;49.910;35.562;2023-08-24T13:51:40;99263.16;;;23.64;49.14
73692;BME280;61996;49.910;35.562;2023-08-24T13:54:43;99270.03;;;23.66;49.36
73692;BME280;61996;49.910;35.562;2023-08-24T13:58:01;99268.19;;;23.67;49.10
73692;BME280;61996;49.910;35.562;2023-08-24T14:01:04;99266.16;;;23.69;49.12
73692;BME280;61996;49.910;35.562;2023-08-24T14:04:07;99263.47;;;23.69;49.20
73692;BME280;61996;49.910;35.562;2023-08-24T14:07:10;99264.97;;;23.71;49.33
73692;BME280;61996;49.910;35.562;2023-08-24T14:10:16;99271.19;;;23.72;48.99
73692;BME280;61996;49.910;35.562;2023-08-24T14:13:20;99272.00;;;23.72;49.06
73692;BME280;61996;49.910;35.562;2023-08-24T14:16:23;99280.91;;;23.73;49.21
73692;BME280;61996;49.910;35.562;2023-08-24T14:19:26;99269.47;;;23.71;49.38
73692;BME280;61996;49.910;35.562;2023-08-24T14:22:29;99278.56;;;23.70;49.30
73692;BME280;61996;49.910;35.562;2023-08-24T14:25:32;99277.19;;;23.74;49.24
73692;BME280;61996;49.910;35.562;2023-08-24T14:28:49;99274.50;;;23.74;49.19
73692;BME280;61996;49.910;35.562;2023-08-24T14:31:52;99277.38;;;23.72;48.86
73692;BME280;61996;49.910;35.562;2023-08-24T14:34:55;99282.38;;;23.75;48.97
73692;BME280;61996;49.910;35.562;2023-08-24T14:37:58;99286.72;;;23.76;48.90
73692;BME280;61996;49.910;35.562;2023-08-24T14:41:01;99283.84;;;23.78;48.73
73692;BME280;61996;49.910;35.562;2023-08-24T14:44:05;99283.72;;;23.79;48.50
73692;BME280;61996;49.910;35.562;2023-08-24T14:47:09;99272.97;;;23.79;48.80
73692;BME280;61996;49.910;35.562;2023-08-24T14:50:12;99279.81;;;23.82;48.63
73692;BME280;61996;49.910;35.562;2023-08-24T14:53:15;99286.78;;;23.91;48.50
73692;BME280;61996;49.910;35.562;2023-08-24T14:56:19;99267.22;;;23.83;49.34
73692;BME280;61996;49.910;35.562;2023-08-24T14:59:24;99272.06;;;23.87;49.31
73692;BME280;61996;49.910;35.562;2023-08-24T15:02:27;99270.41;;;23.86;49.52
73692;BME280;61996;49.910;35.562;2023-08-24T15:05:30;99270.41;;;23.86;49.25
73692;BME280;61996;49.910;35.562;2023-08-24T15:08:33;99269.72;;;23.84;49.16
73692;BME280;61996;49.910;35.562;2023-08-24T15:11:35;99261.03;;;23.82;49.50
73692;BME280;61996;49.910;35.562;2023-08-24T15:14:45;99261.03;;;23.82;49.29
73692;BME280;61996;49.910;35.562;2023-08-24T15:17:58;99262.03;;;23.81;49.32
73692;BME280;61996;49.910;35.562;2023-08-24T15:21:01;99254.81;;;23.82;49.26
73692;BME280;61996;49.910;35.562;2023-08-24T15:24:05;99249.63;;;23.80;49.28
73692;BME280;61996;49.910;35.562;2023-08-24T15:27:08;99249.81;;;23.78;49.69
73692;BME280;61996;49.910;35.562;2023-08-24T15:30:12;99257.50;;;23.82;49.29
73692;BME280;61996;49.910;35.562;2023-08-24T15:33:15;99243.25;;;23.81;49.64
73692;BME280;61996;49.910;35.562;2023-08-24T15:36:18;99244.53;;;23.85;49.40
73692;BME280;61996;49.910;35.562;2023-08-24T15:39:21;99245.75;;;23.83;49.14
73692;BME280;61996;49.910;35.562;2023-08-24T15:42:24;99240.56;;;23.81;49.30
73692;BME280;61996;49.910;35.562;2023-08-24T15:45:28;99242.72;;;23.86;49.43
73692;BME280;61996;49.910;35.562;2023-08-24T15:48:31;99245.22;;;23.87;49.46
73692;BME280;61996;49.910;35.562;2023-08-24T15:51:34;99240.38;;;23.83;49.54
73692;BME280;61996;49.910;35.562;2023-08-24T15:54:40;99249.56;;;23.88;49.36
73692;BME280;61996;49.910;35.562;2023-08-24T15:57:43;99245.56;;;23.84;49.52
73692;BME280;61996;49.910;35.562;2023-08-24T16:00:47;99247.91;;;23.87;49.38
73692;BME280;61996;49.910;35.562;2023-08-24T16:03:50;99245.41;;;23.86;49.43